Estación Meteorológica Peña el Pijo (Robertgarden) [ 02/03/23 04:43:31 CET ]

Fecha Hora Presion(HPa) Temp (°C) Humedad % Rocio (°C) Viento ( m/s) Direccion Lluvia 1Hora(mm) Lluvia 24H(mm) LLuvia Total(mm)
2010-May-08 01:01:14 1002.100 11.1 60 3.6         112.92
2010-May-08 02:01:13 1001.800 10.1 67 4.2         112.92
2010-May-08 03:03:20 1001.600 9.6 72 4.8         112.92
2010-May-08 04:01:14 1001.600 9.4 74 5.0         112.92
2010-May-08 05:01:14 1001.200 8.9 77 5.0         112.92
2010-May-08 06:01:13 1001.300 9.0 77 5.1         112.92
2010-May-08 07:01:18 1001.500 8.8 77 5.0         112.92
2010-May-08 08:01:16 1001.800 8.4 80 5.2         112.92
2010-May-08 09:01:14 1002.700 12.4 62 5.3         112.92
2010-May-08 10:01:11 1003.000 14.5 50 4.2         112.92
2010-May-08 11:01:14 1003.100 16.4 43 3.7         112.92
2010-May-08 12:01:14 1003.000 19.3 37 4.2         112.92
2010-May-08 13:01:13 1002.700 21.2 34 4.6         112.92
2010-May-08 14:01:14 1002.700 23.3 31 5.2         112.92
2010-May-08 15:01:13 1002.300 23.9 30 5.3         112.92
2010-May-08 16:01:14 1002.100 20.9 32 3.5         112.92
2010-May-08 17:01:12 1001.800 20.7 34 4.2         112.92
2010-May-08 18:01:15 1001.600 20.9 32 3.5         112.92
2010-May-08 19:01:13 1001.700 19.1 43 6.2         112.92
2010-May-08 20:01:12 1001.800 17.8 45 5.6         112.92
2010-May-08 21:01:12 1002.500 16.4 47 5.0         112.92
2010-May-08 22:01:12 1002.900 14.8 53 5.3         112.92
2010-May-08 23:01:11 1003.200 11.4 65 5.0         112.92

Temperatura Máxima:23°    Temperatura Mínima:
Presión Máxima:1003.200 Hpa    Presión Mínima:1001.200 Hpa


Volver